Time;durP1;ratioP1;P1;durP2;ratioP2;P2;SDS_P1;SDS_P2;PMS_P1;PMS_P2;Temp;Humidity;BMP_temperature;BMP_pressure;BME280_temperature;BME280_humidity;BME280_pressure;Samples;Min_cycle;Max_cycle;Signal;HPM_P1;HPM_P2
2022/11/29 00:02:14;;;;;;;59.78;22.85;;;;;;;;;;5032138;28;20096;-43
2022/11/29 00:04:40;;;;;;;62.17;22.75;;;;;;;;;;5031284;28;20044;-45
2022/11/29 00:07:05;;;;;;;70.55;22.88;;;;;;;;;;5031728;28;20050;-43
2022/11/29 00:09:30;;;;;;;53.85;21.42;;;;;;;;;;5032709;28;20025;-44
2022/11/29 00:12:11;;;;;;;57.28;21.67;;;;;;;;;;5032012;28;20387;-42
2022/11/29 00:14:36;;;;;;;78.32;21.67;;;;;;;;;;5031800;28;20116;-44
2022/11/29 00:17:03;;;;;;;63.45;24.23;;;;;;;;;;5031788;28;20100;-43
2022/11/29 00:19:28;;;;;;;45.40;18.67;;;;;;;;;;5031896;28;20068;-43
2022/11/29 00:21:53;;;;;;;73.07;22.50;;;;;;;;;;5032145;28;20025;-42
2022/11/29 00:24:19;;;;;;;69.75;21.77;;;;;;;;;;5031427;28;20386;-42
2022/11/29 00:26:44;;;;;;;57.28;20.52;;;;;;;;;;5031901;28;20072;-43
2022/11/29 00:29:12;;;;;;;60.83;21.77;;;;;;;;;;5032226;28;20057;-43
2022/11/29 00:31:38;;;;;;;69.07;22.00;;;;;;;;;;5031845;28;20021;-42
2022/11/29 00:34:05;;;;;;;71.95;24.85;;;;;;;;;;5031157;28;20772;-45
2022/11/29 00:36:31;;;;;;;75.50;24.98;;;;;;;;;;5031883;28;20587;-44
2022/11/29 00:38:56;;;;;;;86.75;25.52;;;;;;;;;;5032054;28;20117;-43
2022/11/29 00:41:21;;;;;;;69.68;22.17;;;;;;;;;;5031940;28;20407;-43
2022/11/29 00:43:46;;;;;;;71.75;23.90;;;;;;;;;;5031201;28;20075;-41
2022/11/29 00:46:12;;;;;;;64.05;22.77;;;;;;;;;;5031430;28;20404;-41
2022/11/29 00:48:37;;;;;;;64.78;22.30;;;;;;;;;;5033698;28;20021;-46
2022/11/29 00:51:03;;;;;;;52.72;21.40;;;;;;;;;;5036029;28;20036;-43
2022/11/29 00:53:28;;;;;;;72.70;23.05;;;;;;;;;;5035236;28;20025;-41
2022/11/29 00:55:54;;;;;;;67.18;21.23;;;;;;;;;;5035207;28;20017;-44
2022/11/29 00:58:19;;;;;;;57.08;21.52;;;;;;;;;;5035511;28;20154;-43
2022/11/29 01:00:44;;;;;;;68.10;22.45;;;;;;;;;;5035437;28;20022;-42
2022/11/29 01:03:10;;;;;;;62.65;20.92;;;;;;;;;;5035398;28;20408;-41
2022/11/29 01:05:35;;;;;;;54.88;20.92;;;;;;;;;;5020069;28;20077;-43
2022/11/29 01:08:00;;;;;;;57.25;21.83;;;;;;;;;;5015675;28;20033;-43
2022/11/29 01:10:26;;;;;;;62.63;22.40;;;;;;;;;;5015566;28;20022;-43
2022/11/29 01:12:51;;;;;;;63.63;21.23;;;;;;;;;;5015292;28;20045;-43
2022/11/29 01:15:16;;;;;;;49.92;20.50;;;;;;;;;;5014648;28;20351;-41
2022/11/29 01:17:42;;;;;;;58.05;21.15;;;;;;;;;;5015165;28;20022;-42
2022/11/29 01:20:08;;;;;;;85.70;21.15;;;;;;;;;;5015207;28;20022;-43
2022/11/29 01:22:34;;;;;;;61.88;19.48;;;;;;;;;;5015048;28;20480;-43
2022/11/29 01:24:59;;;;;;;50.00;19.00;;;;;;;;;;5014710;28;20017;-43
2022/11/29 01:27:25;;;;;;;71.40;21.13;;;;;;;;;;5015390;28;20026;-43
2022/11/29 01:29:50;;;;;;;83.78;20.38;;;;;;;;;;5015183;28;20105;-40
2022/11/29 01:32:15;;;;;;;58.28;20.63;;;;;;;;;;5014879;28;20076;-43
2022/11/29 01:34:40;;;;;;;47.70;18.98;;;;;;;;;;5013904;28;20397;-44
2022/11/29 01:37:06;;;;;;;64.07;19.45;;;;;;;;;;5015550;28;20104;-40
2022/11/29 01:39:31;;;;;;;82.40;22.13;;;;;;;;;;5015008;28;20267;-42
2022/11/29 01:41:56;;;;;;;72.32;20.63;;;;;;;;;;5014761;28;20014;-43
2022/11/29 01:44:22;;;;;;;108.45;20.73;;;;;;;;;;5014390;28;20235;-43
2022/11/29 01:46:47;;;;;;;74.93;19.85;;;;;;;;;;5014653;28;20029;-43
2022/11/29 01:49:18;;;;;;;83.55;21.42;;;;;;;;;;5014503;28;20084;-43
2022/11/29 01:51:46;;;;;;;80.65;21.42;;;;;;;;;;5014870;28;20022;-43
2022/11/29 01:54:12;;;;;;;58.40;20.17;;;;;;;;;;5013854;28;20036;-42
2022/11/29 01:56:37;;;;;;;52.10;19.60;;;;;;;;;;5014377;28;20096;-43
2022/11/29 01:59:06;;;;;;;85.88;20.38;;;;;;;;;;5023429;28;20116;-43
2022/11/29 02:01:33;;;;;;;61.55;18.98;;;;;;;;;;5033682;28;20096;-44
2022/11/29 02:03:58;;;;;;;55.47;20.13;;;;;;;;;;5033713;28;20037;-44
2022/11/29 02:06:24;;;;;;;83.32;21.70;;;;;;;;;;5033473;28;20569;-40
2022/11/29 02:08:49;;;;;;;78.13;20.92;;;;;;;;;;5034276;28;20492;-44
2022/11/29 02:11:31;;;;;;;75.30;20.27;;;;;;;;;;5034013;28;20025;-41
2022/11/29 02:14:08;;;;;;;77.28;20.38;;;;;;;;;;5033157;28;20026;-43
2022/11/29 02:16:40;;;;;;;71.30;19.13;;;;;;;;;;5033569;28;20026;-44
2022/11/29 02:19:28;;;;;;;66.88;20.95;;;;;;;;;;5033725;28;20025;-44
2022/11/29 02:22:13;;;;;;;62.70;19.73;;;;;;;;;;5033739;28;20029;-44
2022/11/29 02:24:59;;;;;;;61.33;21.27;;;;;;;;;;5032386;28;20532;-44
2022/11/29 02:27:24;;;;;;;73.85;20.30;;;;;;;;;;5032342;28;20050;-43
2022/11/29 02:30:01;;;;;;;75.68;21.17;;;;;;;;;;5033604;28;20037;-41
2022/11/29 02:32:43;;;;;;;79.85;20.92;;;;;;;;;;5033332;28;20029;-44
2022/11/29 02:35:22;;;;;;;63.65;20.40;;;;;;;;;;5032602;28;20817;-44
2022/11/29 02:37:47;;;;;;;88.47;22.23;;;;;;;;;;5033661;28;20013;-42
2022/11/29 02:40:12;;;;;;;77.50;20.00;;;;;;;;;;5033393;28;20033;-43
2022/11/29 02:42:53;;;;;;;63.55;20.20;;;;;;;;;;5033182;28;20258;-44
2022/11/29 02:45:30;;;;;;;65.72;20.40;;;;;;;;;;5032445;28;20033;-44
2022/11/29 02:48:18;;;;;;;60.50;18.02;;;;;;;;;;5033678;28;20433;-44
2022/11/29 02:50:49;;;;;;;77.43;21.02;;;;;;;;;;5033037;28;20025;-41
2022/11/29 02:53:24;;;;;;;69.85;19.80;;;;;;;;;;5032855;28;20092;-42
2022/11/29 02:56:03;;;;;;;94.78;21.88;;;;;;;;;;5032224;28;20408;-43
2022/11/29 02:58:54;;;;;;;102.43;21.63;;;;;;;;;;5033124;28;20025;-44
2022/11/29 03:01:25;;;;;;;62.35;19.27;;;;;;;;;;5032447;28;20042;-44
2022/11/29 03:03:59;;;;;;;75.50;20.38;;;;;;;;;;5032424;28;20029;-45
2022/11/29 03:06:24;;;;;;;73.53;19.60;;;;;;;;;;5013838;28;20058;-43
2022/11/29 03:08:52;;;;;;;59.55;19.88;;;;;;;;;;5033429;28;20036;-45
2022/11/29 03:11:44;;;;;;;88.15;21.38;;;;;;;;;;5032212;28;20489;-42
2022/11/29 03:14:09;;;;;;;59.92;19.70;;;;;;;;;;5012639;28;20037;-44
2022/11/29 03:16:44;;;;;;;71.07;19.45;;;;;;;;;;5031721;28;20018;-44
2022/11/29 03:19:12;;;;;;;74.97;20.67;;;;;;;;;;5032909;28;20022;-44
2022/11/29 03:21:37;;;;;;;68.22;18.30;;;;;;;;;;5032873;28;20113;-42
2022/11/29 03:24:10;;;;;;;71.97;20.17;;;;;;;;;;5032374;28;20536;-43
2022/11/29 03:26:40;;;;;;;100.53;22.95;;;;;;;;;;5032069;28;20329;-43
2022/11/29 03:29:10;;;;;;;81.60;21.70;;;;;;;;;;5032398;28;20070;-44
2022/11/29 03:32:01;;;;;;;97.00;22.70;;;;;;;;;;5032693;28;20075;-44
2022/11/29 03:34:27;;;;;;;88.30;22.23;;;;;;;;;;5031119;28;20042;-44
2022/11/29 03:36:57;;;;;;;85.32;25.05;;;;;;;;;;5031885;28;20097;-42
2022/11/29 03:39:44;;;;;;;93.60;24.23;;;;;;;;;;5032224;28;20032;-44
2022/11/29 03:42:32;;;;;;;70.32;24.38;;;;;;;;;;5032164;28;20087;-44
2022/11/29 03:45:07;;;;;;;100.97;26.23;;;;;;;;;;5029733;28;20041;-44
2022/11/29 03:47:35;;;;;;;103.45;25.33;;;;;;;;;;5031833;28;20068;-44
2022/11/29 03:50:05;;;;;;;68.55;24.23;;;;;;;;;;5032231;28;20029;-44
2022/11/29 03:52:51;;;;;;;74.70;25.38;;;;;;;;;;5032097;28;20053;-45
2022/11/29 03:55:35;;;;;;;81.45;22.60;;;;;;;;;;5031497;28;20038;-44
2022/11/29 03:58:18;;;;;;;79.28;23.13;;;;;;;;;;5032182;28;20432;-44
2022/11/29 04:00:46;;;;;;;111.85;27.13;;;;;;;;;;5032170;28;20021;-44
2022/11/29 04:03:17;;;;;;;88.78;26.02;;;;;;;;;;5032090;28;20101;-44
2022/11/29 04:06:01;;;;;;;88.88;25.00;;;;;;;;;;5031281;28;20128;-44
2022/11/29 04:08:32;;;;;;;119.45;27.83;;;;;;;;;;5031974;28;20025;-41
2022/11/29 04:11:12;;;;;;;72.05;24.42;;;;;;;;;;5032117;28;20526;-43
2022/11/29 04:13:52;;;;;;;64.07;22.95;;;;;;;;;;5031679;28;20477;-44
2022/11/29 04:16:25;;;;;;;86.85;24.38;;;;;;;;;;5031732;28;20134;-41
2022/11/29 04:18:59;;;;;;;93.15;25.52;;;;;;;;;;5032538;28;20117;-42
2022/11/29 04:21:30;;;;;;;90.38;25.02;;;;;;;;;;5031708;28;20461;-41
2022/11/29 04:24:21;;;;;;;104.55;28.13;;;;;;;;;;5035498;28;20025;-42
2022/11/29 04:27:10;;;;;;;67.15;24.90;;;;;;;;;;5041957;28;20397;-41
2022/11/29 04:29:38;;;;;;;77.47;23.90;;;;;;;;;;5035817;28;20104;-43
2022/11/29 04:32:13;;;;;;;93.47;25.73;;;;;;;;;;5036249;28;20055;-42
2022/11/29 04:34:56;;;;;;;77.95;23.45;;;;;;;;;;5035227;28;20052;-44
2022/11/29 04:37:47;;;;;;;81.45;25.25;;;;;;;;;;5035805;28;20025;-44
2022/11/29 04:40:15;;;;;;;78.53;24.75;;;;;;;;;;5036177;28;20076;-43
2022/11/29 04:42:51;;;;;;;80.88;25.55;;;;;;;;;;5035766;28;20392;-43
2022/11/29 04:45:35;;;;;;;84.13;23.20;;;;;;;;;;5035263;28;20104;-43
2022/11/29 04:48:09;;;;;;;74.43;22.05;;;;;;;;;;5035988;28;20040;-45
2022/11/29 04:50:46;;;;;;;80.10;22.55;;;;;;;;;;5035429;28;20503;-44
2022/11/29 04:53:14;;;;;;;72.45;25.00;;;;;;;;;;5035333;28;20104;-44
2022/11/29 04:55:48;;;;;;;65.90;22.90;;;;;;;;;;5035112;28;20069;-42
2022/11/29 04:58:19;;;;;;;69.75;23.38;;;;;;;;;;5035546;28;20028;-41
2022/11/29 05:00:50;;;;;;;71.90;24.15;;;;;;;;;;5035361;28;20013;-40
2022/11/29 05:03:19;;;;;;;83.88;22.27;;;;;;;;;;5035078;28;20022;-41
2022/11/29 05:05:45;;;;;;;;;;;;;;;;;;5019294;28;20065;-41
2022/11/29 05:08:29;;;;;;;82.40;25.67;;;;;;;;;;5015799;28;19909;-43
2022/11/29 05:11:13;;;;;;;89.30;24.58;;;;;;;;;;5015844;28;20116;-44
2022/11/29 05:13:38;;;;;;;70.05;25.13;;;;;;;;;;5015255;28;20037;-43
2022/11/29 05:16:21;;;;;;;64.22;22.30;;;;;;;;;;5014579;28;20025;-42
2022/11/29 05:18:53;;;;;;;79.30;24.33;;;;;;;;;;5015941;28;20351;-42
2022/11/29 05:21:24;;;;;;;68.95;24.10;;;;;;;;;;5015401;28;20025;-43
2022/11/29 05:23:52;;;;;;;71.28;25.88;;;;;;;;;;5014500;28;20030;-42
2022/11/29 05:26:40;;;;;;;94.00;25.03;;;;;;;;;;5032344;28;20080;-43
2022/11/29 05:29:11;;;;;;;71.82;22.15;;;;;;;;;;5034417;28;20473;-44
2022/11/29 05:31:40;;;;;;;73.25;23.58;;;;;;;;;;5034970;28;20025;-42
2022/11/29 05:34:34;;;;;;;99.50;25.53;;;;;;;;;;5033328;28;20449;-45
2022/11/29 05:36:59;;;;;;;87.18;25.60;;;;;;;;;;5033714;28;20029;-43
2022/11/29 05:39:33;;;;;;;88.10;23.90;;;;;;;;;;5034334;28;20452;-43
2022/11/29 05:42:08;;;;;;;74.78;24.77;;;;;;;;;;5034115;28;20262;-43
2022/11/29 05:44:36;;;;;;;72.70;22.98;;;;;;;;;;5033395;28;20053;-42
2022/11/29 05:47:08;;;;;;;76.63;23.02;;;;;;;;;;5034129;28;20025;-44
2022/11/29 05:49:52;;;;;;;76.97;23.02;;;;;;;;;;5032682;28;20476;-43
2022/11/29 05:52:18;;;;;;;69.43;22.95;;;;;;;;;;5034639;28;20041;-43
2022/11/29 05:55:02;;;;;;;67.93;22.45;;;;;;;;;;5033461;28;20028;-43
2022/11/29 05:57:36;;;;;;;71.20;21.95;;;;;;;;;;5033801;28;20033;-43
2022/11/29 06:00:03;;;;;;;60.00;22.00;;;;;;;;;;5033762;28;20079;-42
2022/11/29 06:02:47;;;;;;;72.07;21.38;;;;;;;;;;5033743;28;20071;-44
2022/11/29 06:05:12;;;;;;;77.38;21.13;;;;;;;;;;5022227;28;20022;-43
2022/11/29 06:08:12;;;;;;;60.78;21.80;;;;;;;;;;5025753;28;20048;-41
2022/11/29 06:10:40;;;;;;;86.20;24.38;;;;;;;;;;5031728;28;20033;-43
2022/11/29 06:13:22;;;;;;;71.45;21.75;;;;;;;;;;5032660;28;20041;-42
2022/11/29 06:16:03;;;;;;;57.97;21.33;;;;;;;;;;5027347;28;20167;-45
2022/11/29 06:18:35;;;;;;;68.00;23.42;;;;;;;;;;5028810;28;20069;-43
2022/11/29 06:21:08;;;;;;;75.18;23.35;;;;;;;;;;5030423;28;20149;-43
2022/11/29 06:23:49;;;;;;;74.47;24.10;;;;;;;;;;5030325;28;20029;-47
2022/11/29 06:26:28;;;;;;;71.13;23.17;;;;;;;;;;5028081;28;20037;-45
2022/11/29 06:29:28;;;;;;;77.82;24.98;;;;;;;;;;5029096;28;20029;-46
2022/11/29 06:32:20;;;;;;;70.57;22.97;;;;;;;;;;5027624;28;20029;-44
2022/11/29 06:34:53;;;;;;;82.70;23.02;;;;;;;;;;5013639;28;20091;-45
2022/11/29 06:37:18;;;;;;;68.75;22.23;;;;;;;;;;5031102;28;20033;-43
2022/11/29 06:39:43;;;;;;;60.78;19.30;;;;;;;;;;5030863;28;20064;-46
2022/11/29 06:42:09;;;;;;;72.30;21.25;;;;;;;;;;5031096;28;20420;-43
2022/11/29 06:44:34;;;;;;;69.85;22.42;;;;;;;;;;5031039;28;20100;-44
2022/11/29 06:47:08;;;;;;;65.70;20.88;;;;;;;;;;5026360;28;20049;-43
2022/11/29 06:49:36;;;;;;;56.10;20.48;;;;;;;;;;5016163;28;20436;-42
2022/11/29 06:52:07;;;;;;;71.47;20.52;;;;;;;;;;5025159;28;20058;-44
2022/11/29 06:54:51;;;;;;;58.28;21.02;;;;;;;;;;5023676;28;20500;-46
2022/11/29 06:57:35;;;;;;;70.25;21.50;;;;;;;;;;5025171;28;20165;-42
2022/11/29 07:00:13;;;;;;;63.92;21.00;;;;;;;;;;5027408;28;20029;-43
2022/11/29 07:02:47;;;;;;;67.68;22.38;;;;;;;;;;5017701;28;20025;-44
2022/11/29 07:05:18;;;;;;;68.53;22.52;;;;;;;;;;5025722;28;20100;-43
2022/11/29 07:07:45;;;;;;;63.45;21.13;;;;;;;;;;5023583;28;20033;-42
2022/11/29 07:10:15;;;;;;;59.47;19.65;;;;;;;;;;5021678;28;20026;-44
2022/11/29 07:12:41;;;;;;;55.10;20.70;;;;;;;;;;5021280;28;20027;-41
2022/11/29 07:15:11;;;;;;;70.70;21.48;;;;;;;;;;5022602;28;20026;-44
2022/11/29 07:18:02;;;;;;;67.65;20.33;;;;;;;;;;5022212;28;20040;-43
2022/11/29 07:20:36;;;;;;;63.63;19.27;;;;;;;;;;5022015;28;20064;-41
2022/11/29 07:23:08;;;;;;;60.72;20.13;;;;;;;;;;5020557;28;20021;-44
2022/11/29 07:25:33;;;;;;;64.35;18.65;;;;;;;;;;5025415;28;20040;-42
2022/11/29 07:28:04;;;;;;;54.05;18.80;;;;;;;;;;5028841;28;20447;-42
2022/11/29 07:30:29;;;;;;;49.88;17.73;;;;;;;;;;5029765;28;20075;-43
2022/11/29 07:32:54;;;;;;;56.63;17.63;;;;;;;;;;5019062;28;20025;-46
2022/11/29 07:35:23;;;;;;;59.55;17.92;;;;;;;;;;5025529;28;20062;-46
2022/11/29 07:37:58;;;;;;;52.65;17.35;;;;;;;;;;5015219;28;20029;-45
2022/11/29 07:40:29;;;;;;;57.38;18.38;;;;;;;;;;5023016;28;20029;-44
2022/11/29 07:43:13;;;;;;;51.97;18.30;;;;;;;;;;5025883;28;20021;-46
2022/11/29 07:45:38;;;;;;;56.42;18.10;;;;;;;;;;5020998;28;20040;-45
2022/11/29 07:48:04;;;;;;;56.47;16.83;;;;;;;;;;5022771;28;20552;-43
2022/11/29 07:50:29;;;;;;;50.83;18.38;;;;;;;;;;5027170;28;20053;-43
2022/11/29 07:52:55;;;;;;;48.70;17.27;;;;;;;;;;5025075;28;20025;-40
2022/11/29 07:55:21;;;;;;;50.13;16.50;;;;;;;;;;5025207;28;20873;-42
2022/11/29 07:57:47;;;;;;;55.63;16.52;;;;;;;;;;5023063;28;20029;-46
2022/11/29 08:00:13;;;;;;;49.40;17.17;;;;;;;;;;5028152;28;20050;-43
2022/11/29 08:02:38;;;;;;;48.38;17.08;;;;;;;;;;5027402;28;20025;-44
2022/11/29 08:05:04;;;;;;;51.63;18.63;;;;;;;;;;5020304;28;20022;-43
2022/11/29 08:07:36;;;;;;;53.50;17.10;;;;;;;;;;4993607;28;20517;-45
2022/11/29 08:10:02;;;;;;;62.00;18.60;;;;;;;;;;5001972;28;20089;-41
2022/11/29 08:12:27;;;;;;;52.22;17.85;;;;;;;;;;5001923;28;20035;-44
2022/11/29 08:14:52;;;;;;;49.58;17.33;;;;;;;;;;5000224;28;20061;-41
2022/11/29 08:17:18;;;;;;;48.97;17.63;;;;;;;;;;5011554;28;20072;-42
2022/11/29 08:19:43;;;;;;;50.08;17.98;;;;;;;;;;5004873;28;20030;-42
2022/11/29 08:22:09;;;;;;;47.40;16.77;;;;;;;;;;5004421;28;20030;-44
2022/11/29 08:24:34;;;;;;;48.45;16.60;;;;;;;;;;4999598;28;20018;-44
2022/11/29 08:26:59;;;;;;;54.03;19.73;;;;;;;;;;5004803;28;20400;-42
2022/11/29 08:29:25;;;;;;;72.68;18.02;;;;;;;;;;5006321;28;20034;-40
2022/11/29 08:31:52;;;;;;;46.38;16.13;;;;;;;;;;5008622;28;20110;-44
2022/11/29 08:34:17;;;;;;;49.55;18.48;;;;;;;;;;5005453;28;20536;-43
2022/11/29 08:36:43;;;;;;;43.03;17.30;;;;;;;;;;5008062;28;20026;-42
2022/11/29 08:39:08;;;;;;;49.83;19.20;;;;;;;;;;5008494;28;20017;-41
2022/11/29 08:41:33;;;;;;;54.75;19.20;;;;;;;;;;5007288;28;20064;-43
2022/11/29 08:43:59;;;;;;;51.83;18.08;;;;;;;;;;5010809;28;20029;-42
2022/11/29 08:47:34;;;;;;;54.22;16.15;;;;;;;;;;5002974;28;20033;-38
2022/11/29 08:49:09;;;;;;;56.17;18.05;;;;;;;;;;5011740;28;20065;-42
2022/11/29 08:51:35;;;;;;;50.35;17.70;;;;;;;;;;5016009;28;20045;-43
2022/11/29 08:54:00;;;;;;;57.08;17.50;;;;;;;;;;5009246;28;20038;-41
2022/11/29 08:56:25;;;;;;;53.30;18.52;;;;;;;;;;5003978;28;20076;-38
2022/11/29 08:58:51;;;;;;;56.22;18.55;;;;;;;;;;4999276;28;20022;-44
2022/11/29 09:01:17;;;;;;;56.38;17.55;;;;;;;;;;5007278;28;20026;-44
2022/11/29 09:03:58;;;;;;;59.10;19.08;;;;;;;;;;5002531;28;20381;-38
2022/11/29 09:06:24;;;;;;;53.17;16.67;;;;;;;;;;5023053;28;20720;-43
2022/11/29 09:08:49;;;;;;;55.05;18.55;;;;;;;;;;5024853;28;21595;-41
2022/11/29 09:11:15;;;;;;;53.90;17.95;;;;;;;;;;5027627;28;20515;-44
2022/11/29 09:13:42;;;;;;;58.47;18.33;;;;;;;;;;5029690;28;20025;-43
2022/11/29 09:16:09;;;;;;;54.42;18.52;;;;;;;;;;5026607;28;20109;-42
2022/11/29 09:18:36;;;;;;;59.38;18.88;;;;;;;;;;5024900;28;20029;-45
2022/11/29 09:21:03;;;;;;;51.95;18.27;;;;;;;;;;5026091;28;20028;-43
2022/11/29 09:23:29;;;;;;;60.35;18.63;;;;;;;;;;5023040;28;20025;-39
2022/11/29 09:25:55;;;;;;;63.85;19.33;;;;;;;;;;5032101;28;20112;-43
2022/11/29 09:28:20;;;;;;;57.63;17.85;;;;;;;;;;5031775;28;20061;-40
2022/11/29 09:30:45;;;;;;;64.93;19.65;;;;;;;;;;5034349;28;20071;-41
2022/11/29 09:33:11;;;;;;;67.20;18.83;;;;;;;;;;5026912;28;20380;-43
2022/11/29 09:35:36;;;;;;;60.47;19.88;;;;;;;;;;5030164;28;20076;-44
2022/11/29 09:38:01;;;;;;;57.05;18.25;;;;;;;;;;5030503;28;20079;-40
2022/11/29 09:40:32;;;;;;;62.70;19.25;;;;;;;;;;5028160;28;20079;-43
2022/11/29 09:43:16;;;;;;;56.97;19.85;;;;;;;;;;5025878;28;20060;-39
2022/11/29 09:45:44;;;;;;;66.07;20.63;;;;;;;;;;5028365;28;20025;-41
2022/11/29 09:48:28;;;;;;;66.70;22.35;;;;;;;;;;5021831;28;20111;-39
2022/11/29 09:51:14;;;;;;;65.63;21.63;;;;;;;;;;5020056;28;20453;-39
2022/11/29 09:53:42;;;;;;;60.55;19.83;;;;;;;;;;5027125;28;20025;-41
2022/11/29 09:56:22;;;;;;;66.07;20.70;;;;;;;;;;5024846;28;20476;-38
2022/11/29 09:58:59;;;;;;;70.45;21.50;;;;;;;;;;5030450;28;20392;-37
2022/11/29 10:01:30;;;;;;;61.22;20.60;;;;;;;;;;5024203;28;20045;-41
2022/11/29 10:04:09;;;;;;;73.22;22.40;;;;;;;;;;5032922;28;20092;-40
2022/11/29 10:06:37;;;;;;;69.13;21.33;;;;;;;;;;5025811;28;20053;-40
2022/11/29 10:09:15;;;;;;;73.18;22.05;;;;;;;;;;5025942;28;20033;-42
2022/11/29 10:11:42;;;;;;;71.45;22.38;;;;;;;;;;5026157;28;20033;-40
2022/11/29 10:14:16;;;;;;;86.03;24.90;;;;;;;;;;5030025;28;20550;-39
2022/11/29 10:16:44;;;;;;;84.25;25.80;;;;;;;;;;5030931;28;20029;-38
2022/11/29 10:19:14;;;;;;;86.78;26.70;;;;;;;;;;5024189;28;20022;-38
2022/11/29 10:21:42;;;;;;;77.97;24.23;;;;;;;;;;5024698;28;20052;-37
2022/11/29 10:24:13;;;;;;;76.25;25.15;;;;;;;;;;5016491;28;20453;-41
2022/11/29 10:26:39;;;;;;;83.97;25.00;;;;;;;;;;5021488;28;20116;-42
2022/11/29 10:32:12;;;;;;;75.60;23.40;;;;;;;;;;5029089;28;20064;-41
2022/11/29 10:34:38;;;;;;;79.57;25.60;;;;;;;;;;5027002;28;20021;-44
2022/11/29 10:37:07;;;;;;;90.20;28.63;;;;;;;;;;5032008;28;20028;-39
2022/11/29 10:39:36;;;;;;;87.73;30.30;;;;;;;;;;5031764;28;20018;-38
2022/11/29 10:42:02;;;;;;;84.45;26.48;;;;;;;;;;5019614;28;20259;-38
2022/11/29 10:44:30;;;;;;;89.47;26.58;;;;;;;;;;5031018;28;20038;-42
2022/11/29 10:46:55;;;;;;;93.88;28.75;;;;;;;;;;5030489;28;20053;-40
2022/11/29 10:49:25;;;;;;;93.68;28.02;;;;;;;;;;5032945;28;20029;-39
2022/11/29 10:51:51;;;;;;;102.50;28.17;;;;;;;;;;5033067;28;20437;-41
2022/11/29 10:54:19;;;;;;;97.15;31.25;;;;;;;;;;5031800;28;20029;-43
2022/11/29 10:56:44;;;;;;;89.03;29.17;;;;;;;;;;5032491;28;20053;-41
2022/11/29 10:59:18;;;;;;;93.72;29.95;;;;;;;;;;5031912;28;20069;-41
2022/11/29 11:01:43;;;;;;;84.97;28.75;;;;;;;;;;5031866;28;20017;-40
2022/11/29 11:04:35;;;;;;;81.57;27.80;;;;;;;;;;5031965;28;20020;-42
2022/11/29 11:07:02;;;;;;;101.88;33.67;;;;;;;;;;5030848;28;20095;-37
2022/11/29 11:09:30;;;;;;;129.63;45.10;;;;;;;;;;5032251;28;20113;-40
2022/11/29 11:12:03;;;;;;;84.85;30.60;;;;;;;;;;5032541;28;20025;-42
2022/11/29 11:14:30;;;;;;;82.18;28.55;;;;;;;;;;5028867;28;20456;-41
2022/11/29 11:17:12;;;;;;;93.97;30.73;;;;;;;;;;5030500;28;20104;-41
2022/11/29 11:19:37;;;;;;;86.28;29.60;;;;;;;;;;5030849;28;20025;-41
2022/11/29 11:22:03;;;;;;;89.03;29.95;;;;;;;;;;5031913;28;20075;-40
2022/11/29 11:24:34;;;;;;;79.53;29.55;;;;;;;;;;5026123;28;20021;-44
2022/11/29 11:27:00;;;;;;;86.45;31.48;;;;;;;;;;5024976;28;20455;-45
2022/11/29 11:29:32;;;;;;;83.90;30.73;;;;;;;;;;5027237;28;20021;-45
2022/11/29 11:31:58;;;;;;;73.05;27.88;;;;;;;;;;5024591;28;20032;-43
2022/11/29 11:34:26;;;;;;;73.40;27.77;;;;;;;;;;5016755;28;20025;-45
2022/11/29 11:36:52;;;;;;;374.00;140.75;;;;;;;;;;5022476;28;20021;-40
2022/11/29 11:39:21;;;;;;;407.70;126.25;;;;;;;;;;5028619;28;20101;-41
2022/11/29 11:44:37;;;;;;;331.40;122.82;;;;;;;;;;5024636;28;20041;-40
2022/11/29 11:47:11;;;;;;;316.75;119.93;;;;;;;;;;5026143;28;20036;-44
2022/11/29 11:49:45;;;;;;;423.40;127.55;;;;;;;;;;5025030;28;20029;-47
2022/11/29 11:52:24;;;;;;;362.63;127.85;;;;;;;;;;5014098;28;20029;-45
2022/11/29 11:54:51;;;;;;;320.83;117.65;;;;;;;;;;5025805;28;20025;-45
2022/11/29 11:57:17;;;;;;;353.40;126.07;;;;;;;;;;5023612;28;20515;-42
2022/11/29 11:59:46;;;;;;;350.38;117.97;;;;;;;;;;5025646;28;20029;-42
2022/11/29 12:02:24;;;;;;;333.38;121.07;;;;;;;;;;5016930;28;20017;-46
2022/11/29 12:04:50;;;;;;;291.88;120.07;;;;;;;;;;5020228;28;20501;-44
2022/11/29 12:07:27;;;;;;;352.92;118.20;;;;;;;;;;5024875;28;20054;-39
2022/11/29 12:09:59;;;;;;;306.17;114.25;;;;;;;;;;5028485;28;20029;-41
2022/11/29 12:12:30;;;;;;;306.17;112.15;;;;;;;;;;5028139;28;20126;-44
2022/11/29 12:15:00;;;;;;;388.08;119.70;;;;;;;;;;5022591;28;20029;-43
2022/11/29 12:17:35;;;;;;;303.13;111.32;;;;;;;;;;5027184;28;20414;-42
2022/11/29 12:20:19;;;;;;;307.42;112.30;;;;;;;;;;5028476;28;20128;-41
2022/11/29 12:22:54;;;;;;;340.20;119.22;;;;;;;;;;5027198;28;20029;-41
2022/11/29 12:25:22;;;;;;;277.52;105.50;;;;;;;;;;5024798;28;20025;-41
2022/11/29 12:27:48;;;;;;;263.35;107.45;;;;;;;;;;5029317;28;20052;-40
2022/11/29 12:30:14;;;;;;;234.73;101.80;;;;;;;;;;5021439;28;20399;-43
2022/11/29 12:32:42;;;;;;;180.50;96.32;;;;;;;;;;5019906;28;20018;-41
2022/11/29 12:35:20;;;;;;;229.63;102.17;;;;;;;;;;5025877;28;20040;-40
2022/11/29 12:38:01;;;;;;;344.30;106.85;;;;;;;;;;5027652;28;20308;-39
2022/11/29 12:40:45;;;;;;;279.48;100.45;;;;;;;;;;5023491;28;20597;-38
2022/11/29 12:43:28;;;;;;;150.10;85.03;;;;;;;;;;5021335;28;20481;-41
2022/11/29 12:45:53;;;;;;;132.18;79.10;;;;;;;;;;5034772;28;20096;-39
2022/11/29 12:48:22;;;;;;;103.75;65.43;;;;;;;;;;5029684;28;20030;-44
2022/11/29 12:50:47;;;;;;;97.90;48.63;;;;;;;;;;5025859;28;20021;-42
2022/11/29 12:53:28;;;;;;;102.47;50.08;;;;;;;;;;5034790;28;20018;-42
2022/11/29 12:56:14;;;;;;;168.98;86.18;;;;;;;;;;5031365;28;20025;-42
2022/11/29 12:58:46;;;;;;;203.90;83.45;;;;;;;;;;5023528;28;20060;-42
2022/11/29 13:01:11;;;;;;;100.95;62.70;;;;;;;;;;5034464;28;20026;-42
2022/11/29 13:03:55;;;;;;;141.18;79.95;;;;;;;;;;5034746;28;20607;-43
2022/11/29 13:06:30;;;;;;;237.48;96.25;;;;;;;;;;5029181;28;20053;-45
2022/11/29 13:09:01;;;;;;;163.52;91.80;;;;;;;;;;5023815;28;20029;-41
2022/11/29 13:11:29;;;;;;;179.40;96.95;;;;;;;;;;5013826;28;20037;-41
2022/11/29 13:13:57;;;;;;;135.60;87.63;;;;;;;;;;5027824;28;20029;-43
2022/11/29 13:16:29;;;;;;;173.85;83.75;;;;;;;;;;5034119;28;20025;-37
2022/11/29 13:19:13;;;;;;;213.90;90.28;;;;;;;;;;5031013;28;20029;-40
2022/11/29 13:21:41;;;;;;;122.18;73.97;;;;;;;;;;5028487;28;20025;-39
2022/11/29 13:24:29;;;;;;;121.60;69.13;;;;;;;;;;5032493;28;20354;-42
2022/11/29 13:26:55;;;;;;;125.18;69.47;;;;;;;;;;5030783;28;20104;-41
2022/11/29 13:29:20;;;;;;;112.55;72.65;;;;;;;;;;5026790;28;20478;-41
2022/11/29 13:31:47;;;;;;;106.63;67.60;;;;;;;;;;5023223;28;20042;-41
2022/11/29 13:34:19;;;;;;;138.30;78.53;;;;;;;;;;5028872;28;20479;-41
2022/11/29 13:36:44;;;;;;;150.30;78.65;;;;;;;;;;5031222;28;20101;-44
2022/11/29 13:39:32;;;;;;;160.30;84.10;;;;;;;;;;5023702;28;20045;-43
2022/11/29 13:41:58;;;;;;;128.25;81.30;;;;;;;;;;5033089;28;20481;-42
2022/11/29 13:44:35;;;;;;;137.98;81.30;;;;;;;;;;5033416;28;20019;-39
2022/11/29 13:47:01;;;;;;;122.85;75.75;;;;;;;;;;5033250;28;20037;-41
2022/11/29 13:49:45;;;;;;;173.05;84.60;;;;;;;;;;5032274;28;20104;-41
2022/11/29 13:52:23;;;;;;;138.02;75.70;;;;;;;;;;5014166;28;20056;-41
2022/11/29 13:55:02;;;;;;;154.23;84.00;;;;;;;;;;5015632;28;20076;-40
2022/11/29 13:57:27;;;;;;;143.63;79.03;;;;;;;;;;5025305;28;20029;-40
2022/11/29 13:59:53;;;;;;;180.80;85.55;;;;;;;;;;5031504;28;20258;-42
2022/11/29 14:02:36;;;;;;;160.25;86.82;;;;;;;;;;5025616;28;20090;-43
2022/11/29 14:05:01;;;;;;;192.50;92.10;;;;;;;;;;5030249;28;20048;-42
2022/11/29 14:07:26;;;;;;;216.02;93.25;;;;;;;;;;5025658;28;20381;-39
2022/11/29 14:10:00;;;;;;;301.42;100.18;;;;;;;;;;5023645;28;20045;-42
2022/11/29 14:12:25;;;;;;;221.40;95.18;;;;;;;;;;5027715;28;20056;-42
2022/11/29 14:14:53;;;;;;;232.35;100.68;;;;;;;;;;5032646;28;20056;-43
2022/11/29 14:17:45;;;;;;;320.10;109.65;;;;;;;;;;5030967;28;20031;-43
2022/11/29 14:20:31;;;;;;;256.30;101.57;;;;;;;;;;5027489;28;20037;-42
2022/11/29 14:23:02;;;;;;;296.02;106.75;;;;;;;;;;5024341;28;20519;-41
2022/11/29 14:25:28;;;;;;;432.02;110.38;;;;;;;;;;5029709;28;20120;-43
2022/11/29 14:27:55;;;;;;;450.17;114.18;;;;;;;;;;5029020;28;20127;-42
2022/11/29 14:30:30;;;;;;;280.70;108.63;;;;;;;;;;5029463;28;20037;-42
2022/11/29 14:33:03;;;;;;;197.52;96.57;;;;;;;;;;5011970;28;20688;-40
2022/11/29 14:35:36;;;;;;;223.20;109.38;;;;;;;;;;5028296;28;20473;-42
2022/11/29 14:38:20;;;;;;;185.52;91.93;;;;;;;;;;5031534;28;20709;-46
2022/11/29 14:40:56;;;;;;;188.68;95.75;;;;;;;;;;5032093;28;20099;-42
2022/11/29 14:43:21;;;;;;;130.15;83.60;;;;;;;;;;5024721;28;20109;-41
2022/11/29 14:46:04;;;;;;;155.25;86.72;;;;;;;;;;5023537;28;20495;-42